Keene, NY (12942)

08:29 PM EST on دسمبر 22, 2014 (GMT -0500)
Sentinel Range Foothills | Change Station
CLOSE
Current Station
Personal Weather Stations
Location: Keene, NY
Elevation: 1165 ft
Nearby Weather Stations

Elev 1165 ft 44.27 °N, 73.81 °W | Updated 0 second ago

غائم جزئياً
غائم جزئياً
23.5 °F
Feels Like 24 °F
N
0.9
ريح متغير ريح from ENE
Gusts 2.0 mph

هذا اليوم
High -- | Low -- °F
--% Chance of Precip.
Yesterday
High -- | Low -- °F
Precip. -- في
7:28 AM 4:19 PM
قمر جدید, 1% visible
الضغط 30.17 في
وضوح الرؤية 8.0 أميال
سحابات غائم 3000 ft
رياح باردة 24 °F
نقطة الندى 22 °F
الرطوبة 94%
Rainfall 0.00 في
عمق الثلج Not available.
الأشعة فوق البنفسجية 0 out of 12
Pollen .10 out of 12
جودة الهواء Not available.
Flu Activity Not available.
SPECI KSLK 230110Z AUTO 03005KT 8SM OVC030 M05/M06 A3017 RMK AO2 T10501061 $

More Conditions Fewer Conditions

الضغط 30.17 في
وضوح الرؤية 8.0 أميال
سحابات غائم 3000 ft
رياح باردة 24 °F
نقطة الندى 22 °F
الرطوبة 94%
Rainfall 0.00 في
عمق الثلج Not available.
الأشعة فوق البنفسجية 0 out of 12
Pollen .10 out of 12
جودة الهواء Not available.
Flu Activity Not available.
SPECI KSLK 230110Z AUTO 03005KT 8SM OVC030 M05/M06 A3017 RMK AO2 T10501061 $

More Conditions Fewer Conditions

10-Day Weather Forecast

Almanac

علم الفلك

Dec. 22, 2014 Rise Set
Actual Time
Civil Twilight
Nautical Twilight
Astronomical Twilight
قمر
Length Of Visible Light
طول الیوم
Tomorrow will be .
, % of the Moon is Illuminated

Today's Extremes

State Highs State Lows

Community

WunderPhotos

Upload Photos

1,779,749 photos uploaded!

WunderBlogs® & News

Nearby

جودة الهواء

  جودة الهواء AQ Index Pollutant
Not available.

عمق الثلج

Station Depth Elevation

Earthquake Activity

City Distance Mag. Time & Date
Minimum magnitude displayed is 2.5.

Coastal Water Temperatures

مكان درجات الحرارة

Nearby Weather Stations